createdAt,value
2023-03-22T00:00:00.357Z,16.75
2023-03-22T00:02:30.661Z,15.36
2023-03-22T00:05:00.446Z,14.48
2023-03-22T00:07:29.779Z,14.62
2023-03-22T00:10:01.910Z,16.07
2023-03-22T00:12:31.821Z,15.24
2023-03-22T00:15:01.372Z,16.27
2023-03-22T00:17:31.012Z,17.33
2023-03-22T00:20:00.501Z,17.23
2023-03-22T00:22:30.062Z,17.42
2023-03-22T00:25:04.251Z,19.16
2023-03-22T00:27:33.744Z,19.66
2023-03-22T00:30:03.549Z,19.17
2023-03-22T00:32:36.142Z,18.97
2023-03-22T00:35:11.916Z,18.99
2023-03-22T00:37:41.367Z,21.26
2023-03-22T00:40:17.908Z,20.67
2023-03-22T00:42:47.821Z,19.83
2023-03-22T00:45:17.592Z,21.06
2023-03-22T00:47:47.277Z,21.56
2023-03-22T00:50:16.902Z,20.69
2023-03-22T00:52:46.488Z,20.42
2023-03-22T00:55:25.009Z,20.14
2023-03-22T00:57:54.371Z,20.04
2023-03-22T01:00:24.184Z,19.96
2023-03-22T01:02:53.771Z,21.31
2023-03-22T01:05:23.364Z,21.83
2023-03-22T01:07:55.254Z,19.63
2023-03-22T01:10:27.284Z,20.00
2023-03-22T01:12:57.304Z,18.52
2023-03-22T01:15:27.066Z,20.33
2023-03-22T01:17:56.387Z,21.24
2023-03-22T01:20:26.434Z,20.63
2023-03-22T01:22:55.948Z,19.88
2023-03-22T01:25:28.193Z,20.84
2023-03-22T01:27:57.656Z,22.02
2023-03-22T01:30:30.119Z,21.38
2023-03-22T01:32:59.630Z,19.11
2023-03-22T01:35:30.974Z,20.56
2023-03-22T01:38:00.345Z,20.08
2023-03-22T01:40:33.682Z,20.44
2023-03-22T01:43:03.509Z,19.92
2023-03-22T01:45:49.077Z,21.21
2023-03-22T01:48:25.764Z,20.92
2023-03-22T01:51:07.184Z,20.96
2023-03-22T01:53:42.933Z,20.89
2023-03-22T01:56:15.928Z,21.29
2023-03-22T01:58:46.034Z,20.27
2023-03-22T02:01:17.030Z,21.10
2023-03-22T02:04:02.251Z,20.07
2023-03-22T02:06:32.514Z,19.66
2023-03-22T02:09:02.538Z,20.89
2023-03-22T02:11:38.709Z,20.39
2023-03-22T02:14:38.757Z,21.88
2023-03-22T02:17:27.837Z,20.59
2023-03-22T02:20:45.424Z,20.19
2023-03-22T02:24:11.884Z,21.45
2023-03-22T02:27:12.212Z,20.13
2023-03-22T02:29:48.671Z,19.94
2023-03-22T02:33:02.503Z,21.12
2023-03-22T02:36:11.611Z,22.59
2023-03-22T02:39:06.814Z,22.26
2023-03-22T02:41:56.851Z,22.03
2023-03-22T02:44:38.073Z,23.51
2023-03-22T02:47:19.010Z,25.00
2023-03-22T02:49:57.920Z,26.69
2023-03-22T02:52:39.609Z,31.45
2023-03-22T02:55:30.193Z,34.16
2023-03-22T02:58:06.117Z,36.16
2023-03-22T03:00:39.242Z,35.96
2023-03-22T03:03:13.153Z,40.77
2023-03-22T03:05:46.440Z,43.80
2023-03-22T03:08:20.804Z,42.81
2023-03-22T03:10:54.888Z,44.91
2023-03-22T03:13:25.019Z,46.53
2023-03-22T03:15:59.130Z,49.51
2023-03-22T03:18:44.797Z,53.30
2023-03-22T03:21:30.255Z,56.39
2023-03-22T03:24:14.450Z,58.19
2023-03-22T03:26:57.853Z,63.07
2023-03-22T03:29:39.996Z,64.53
2023-03-22T03:32:16.660Z,62.59
2023-03-22T03:34:53.081Z,66.24
2023-03-22T03:37:28.765Z,66.26
2023-03-22T03:40:06.691Z,66.99
2023-03-22T03:42:42.524Z,71.71
2023-03-22T03:45:14.399Z,67.24
2023-03-22T03:47:46.879Z,71.64
2023-03-22T03:50:18.261Z,74.08
2023-03-22T03:52:47.610Z,75.05
2023-03-22T03:55:24.618Z,74.06
2023-03-22T03:57:56.617Z,73.11
2023-03-22T04:00:26.217Z,74.56
2023-03-22T04:02:56.058Z,77.74
2023-03-22T04:05:30.711Z,80.51
2023-03-22T04:08:00.115Z,77.27
2023-03-22T04:10:29.915Z,78.70
2023-03-22T04:13:02.121Z,77.13
2023-03-22T04:15:46.598Z,77.45
2023-03-22T04:18:15.952Z,77.49
2023-03-22T04:20:49.645Z,75.20
2023-03-22T04:23:22.632Z,77.04
2023-03-22T04:25:59.856Z,77.00
2023-03-22T04:28:33.715Z,76.98
2023-03-22T04:31:03.737Z,75.08
2023-03-22T04:33:39.650Z,76.24
2023-03-22T04:36:10.943Z,76.20
2023-03-22T04:38:40.302Z,74.12
2023-03-22T04:41:10.708Z,74.87
2023-03-22T04:43:42.679Z,75.44
2023-03-22T04:46:13.024Z,76.08
2023-03-22T04:48:43.703Z,74.39
2023-03-22T04:51:13.532Z,74.80
2023-03-22T04:53:42.933Z,71.91
2023-03-22T04:56:14.742Z,71.74
2023-03-22T04:58:46.775Z,72.89
2023-03-22T05:01:18.294Z,73.83
2023-03-22T05:03:47.910Z,68.73
2023-03-22T05:06:17.544Z,68.79
2023-03-22T05:08:47.405Z,68.15
2023-03-22T05:11:24.445Z,70.04
2023-03-22T05:13:58.024Z,67.59
2023-03-22T05:16:27.890Z,67.36
2023-03-22T05:18:57.397Z,65.88
2023-03-22T05:21:37.045Z,65.27
2023-03-22T05:24:07.088Z,63.97
2023-03-22T05:26:38.371Z,63.54
2023-03-22T05:29:11.829Z,61.27
2023-03-22T05:31:41.258Z,58.89
2023-03-22T05:34:10.825Z,59.81
2023-03-22T05:36:40.362Z,60.08
2023-03-22T05:39:09.820Z,58.79
2023-03-22T05:41:39.035Z,58.99
2023-03-22T05:44:11.333Z,56.24
2023-03-22T05:46:40.849Z,58.94
2023-03-22T05:49:12.124Z,58.00
2023-03-22T05:51:42.778Z,57.35
2023-03-22T05:54:13.065Z,57.29
2023-03-22T05:56:44.477Z,55.33
2023-03-22T05:59:16.546Z,54.84
2023-03-22T06:01:45.986Z,55.09
2023-03-22T06:04:15.667Z,51.89
2023-03-22T06:06:45.170Z,53.66
2023-03-22T06:09:17.721Z,55.59
2023-03-22T06:11:47.651Z,49.26
2023-03-22T06:14:20.459Z,51.94
2023-03-22T06:16:50.125Z,52.40
2023-03-22T06:19:19.605Z,52.91
2023-03-22T06:21:49.283Z,50.26
2023-03-22T06:24:18.958Z,47.38
2023-03-22T06:26:48.620Z,45.74
2023-03-22T06:29:21.552Z,47.62
2023-03-22T06:31:50.955Z,47.49
2023-03-22T06:34:20.761Z,46.24
2023-03-22T06:36:50.505Z,44.21
2023-03-22T06:39:20.177Z,44.95
2023-03-22T06:41:51.533Z,44.60
2023-03-22T06:44:23.708Z,45.36
2023-03-22T06:46:53.275Z,42.47
2023-03-22T06:49:22.879Z,40.94
2023-03-22T06:51:52.383Z,41.60
2023-03-22T06:54:22.230Z,41.19
2023-03-22T06:56:51.729Z,40.33
2023-03-22T06:59:23.869Z,39.06
2023-03-22T07:01:53.127Z,39.94
2023-03-22T07:04:25.880Z,37.38
2023-03-22T07:06:55.564Z,35.91
2023-03-22T07:09:27.073Z,37.59
2023-03-22T07:11:56.501Z,36.69
2023-03-22T07:14:35.307Z,36.02
2023-03-22T07:17:05.105Z,33.49
2023-03-22T07:19:36.883Z,33.95
2023-03-22T07:22:06.477Z,34.13
2023-03-22T07:24:47.172Z,31.90
2023-03-22T07:27:22.469Z,31.12
2023-03-22T07:29:57.263Z,29.65
2023-03-22T07:32:26.644Z,29.09
2023-03-22T07:35:03.007Z,28.57
2023-03-22T07:37:32.576Z,29.19
2023-03-22T07:40:02.215Z,27.64
2023-03-22T07:42:32.008Z,24.89
2023-03-22T07:45:05.416Z,27.51
2023-03-22T07:47:41.356Z,26.04
2023-03-22T07:50:13.320Z,25.31
2023-03-22T07:52:43.742Z,24.34
2023-03-22T07:55:21.485Z,24.80
2023-03-22T07:57:51.405Z,23.52
2023-03-22T08:00:23.895Z,23.15
2023-03-22T08:02:56.495Z,23.20
2023-03-22T08:05:35.562Z,23.80
2023-03-22T08:08:04.804Z,23.69
2023-03-22T08:10:37.730Z,24.03
2023-03-22T08:13:10.950Z,24.52
2023-03-22T08:16:07.608Z,25.29
2023-03-22T08:18:39.561Z,26.13
2023-03-22T08:21:09.488Z,26.63
2023-03-22T08:23:42.367Z,27.41
2023-03-22T08:26:16.083Z,26.66
2023-03-22T08:28:49.466Z,25.73
2023-03-22T08:31:23.082Z,25.05
2023-03-22T08:33:52.506Z,27.01
2023-03-22T08:36:23.916Z,26.76
2023-03-22T08:39:03.116Z,28.39
2023-03-22T08:41:32.720Z,29.92
2023-03-22T08:44:05.917Z,28.14
2023-03-22T08:46:37.989Z,29.61
2023-03-22T08:49:07.362Z,29.51
2023-03-22T08:51:37.002Z,29.38
2023-03-22T08:54:11.519Z,29.37
2023-03-22T08:56:43.442Z,30.94
2023-03-22T08:59:12.781Z,29.50
2023-03-22T09:01:45.022Z,31.24
2023-03-22T09:04:17.817Z,29.66
2023-03-22T09:06:47.196Z,29.29
2023-03-22T09:09:17.099Z,29.29
2023-03-22T09:11:50.965Z,29.14
2023-03-22T09:14:22.821Z,29.27
2023-03-22T09:16:56.297Z,29.92
2023-03-22T09:19:26.750Z,26.98
2023-03-22T09:21:59.282Z,27.28
2023-03-22T09:24:30.983Z,24.60
2023-03-22T09:27:00.296Z,24.69
2023-03-22T09:29:29.827Z,26.58
2023-03-22T09:32:04.057Z,26.31
2023-03-22T09:34:33.712Z,24.91
2023-03-22T09:37:04.199Z,24.59
2023-03-22T09:39:36.127Z,24.51
2023-03-22T09:42:16.050Z,25.66
2023-03-22T09:44:57.790Z,26.09
2023-03-22T09:47:44.154Z,25.67
2023-03-22T09:50:20.725Z,24.07
2023-03-22T09:52:55.086Z,23.16
2023-03-22T09:55:42.287Z,23.90
2023-03-22T09:58:26.195Z,24.54
2023-03-22T10:01:01.770Z,24.88
2023-03-22T10:04:03.054Z,25.30
2023-03-22T10:06:33.637Z,23.38
2023-03-22T10:09:16.902Z,26.54
2023-03-22T10:11:50.930Z,25.64
2023-03-22T10:14:32.064Z,26.39
2023-03-22T10:17:07.905Z,27.66
2023-03-22T10:19:55.594Z,26.59
2023-03-22T10:22:32.435Z,26.69
2023-03-22T10:25:16.820Z,26.44
2023-03-22T10:27:50.557Z,26.66
2023-03-22T10:30:23.495Z,27.13
2023-03-22T10:33:04.429Z,25.30
2023-03-22T10:35:36.926Z,28.18
2023-03-22T10:38:20.560Z,26.49
2023-03-22T10:40:53.271Z,25.36
2023-03-22T10:43:31.182Z,24.50
2023-03-22T10:46:05.172Z,25.69
2023-03-22T10:48:38.751Z,27.29
2023-03-22T10:51:28.441Z,25.86
2023-03-22T10:54:06.606Z,27.75
2023-03-22T10:56:36.297Z,23.74
2023-03-22T10:59:07.299Z,23.49
2023-03-22T11:01:52.312Z,23.94
2023-03-22T11:04:22.233Z,23.94
2023-03-22T11:07:21.278Z,22.87
2023-03-22T11:09:51.233Z,24.25
2023-03-22T11:12:21.315Z,21.18
2023-03-22T11:14:54.292Z,21.56
2023-03-22T11:17:28.729Z,22.19
2023-03-22T11:20:05.653Z,22.16
2023-03-22T11:22:42.340Z,22.21
2023-03-22T11:25:20.631Z,21.74
2023-03-22T11:27:56.411Z,21.34
2023-03-22T11:30:29.156Z,20.09
2023-03-22T11:33:17.107Z,19.99
2023-03-22T11:35:55.864Z,20.21
2023-03-22T11:38:37.070Z,23.06
2023-03-22T11:41:13.319Z,20.41
2023-03-22T11:43:48.655Z,20.28
2023-03-22T11:46:20.884Z,20.07
2023-03-22T11:48:54.217Z,21.13
2023-03-22T11:51:33.639Z,21.36
2023-03-22T11:54:11.907Z,21.24
2023-03-22T11:56:46.498Z,21.99
2023-03-22T11:59:17.964Z,22.86
2023-03-22T12:01:55.409Z,22.94
2023-03-22T12:04:44.682Z,21.06
2023-03-22T12:07:21.116Z,22.11
2023-03-22T12:10:03.614Z,21.64
2023-03-22T12:12:39.991Z,22.28
2023-03-22T12:15:24.515Z,22.84
2023-03-22T12:18:01.704Z,21.44
2023-03-22T12:20:46.644Z,22.56
2023-03-22T12:23:20.042Z,22.57
2023-03-22T12:26:18.525Z,22.74
2023-03-22T12:28:57.842Z,22.07
2023-03-22T12:31:37.575Z,23.74
2023-03-22T12:34:14.505Z,26.94
2023-03-22T12:36:49.282Z,25.34
2023-03-22T12:39:27.082Z,23.56
2023-03-22T12:42:06.610Z,23.34
2023-03-22T12:44:46.492Z,21.59
2023-03-22T12:47:27.247Z,23.89
2023-03-22T12:50:04.009Z,23.50
2023-03-22T12:52:45.727Z,23.45
2023-03-22T12:55:26.683Z,22.46
2023-03-22T12:58:00.675Z,21.54
2023-03-22T13:00:37.694Z,22.64
2023-03-22T13:03:20.284Z,23.17
2023-03-22T13:06:00.404Z,22.36
2023-03-22T13:09:05.230Z,23.84
2023-03-22T13:11:34.675Z,23.21
2023-03-22T13:14:08.567Z,23.56
2023-03-22T13:16:51.423Z,23.51
2023-03-22T13:19:35.065Z,23.32
2023-03-22T13:22:24.432Z,23.02
2023-03-22T13:25:29.125Z,22.89
2023-03-22T13:28:04.568Z,24.40
2023-03-22T13:30:52.777Z,25.25
2023-03-22T13:33:30.052Z,23.11
2023-03-22T13:36:06.986Z,23.20
2023-03-22T13:38:42.501Z,24.60
2023-03-22T13:41:27.803Z,26.01
2023-03-22T13:44:24.955Z,25.74
2023-03-22T13:47:02.812Z,27.45
2023-03-22T13:49:50.603Z,27.66
2023-03-22T13:52:28.343Z,26.60
2023-03-22T13:54:59.773Z,28.13
2023-03-22T13:57:50.602Z,30.51
2023-03-22T14:00:55.123Z,29.76
2023-03-22T14:03:36.455Z,31.58
2023-03-22T14:06:20.537Z,30.37
2023-03-22T14:08:56.856Z,31.51
2023-03-22T14:11:39.280Z,34.37
2023-03-22T14:14:22.822Z,33.73
2023-03-22T14:16:59.692Z,34.95
2023-03-22T14:19:37.891Z,36.53
2023-03-22T14:53:55.976Z,45.57
2023-03-22T14:56:32.141Z,44.88
2023-03-22T14:59:05.362Z,43.66
2023-03-22T15:01:38.769Z,41.90
2023-03-22T15:04:14.297Z,39.51
2023-03-22T15:06:50.209Z,38.29
2023-03-22T15:09:26.636Z,35.91
2023-03-22T15:12:03.728Z,33.09
2023-03-22T15:14:45.796Z,32.85
2023-03-22T15:17:18.199Z,31.91
2023-03-22T15:19:53.675Z,33.53
2023-03-22T15:22:25.966Z,33.74
2023-03-22T15:25:01.498Z,34.21
2023-03-22T15:27:34.116Z,32.85
2023-03-22T15:30:11.881Z,36.11
2023-03-22T15:32:43.835Z,33.71
2023-03-22T15:35:18.221Z,34.31
2023-03-22T15:37:54.972Z,34.37
2023-03-22T15:40:39.768Z,34.69
2023-03-22T15:43:22.409Z,33.56
2023-03-22T15:46:16.464Z,32.70
2023-03-22T15:48:48.297Z,35.08
2023-03-22T15:51:23.613Z,35.31
2023-03-22T15:54:17.934Z,36.18
2023-03-22T15:56:51.296Z,36.25
2023-03-22T15:59:27.497Z,35.07
2023-03-22T16:02:01.906Z,35.91
2023-03-22T16:04:38.829Z,35.66
2023-03-22T16:07:11.688Z,35.91
2023-03-22T16:09:46.558Z,34.72
2023-03-22T16:12:19.900Z,33.19
2023-03-22T16:14:53.563Z,33.89
2023-03-22T16:17:27.794Z,34.37
2023-03-22T16:19:57.422Z,36.05
2023-03-22T16:22:35.296Z,35.89
2023-03-22T16:25:19.558Z,37.61
2023-03-22T16:27:49.283Z,34.58
2023-03-22T16:30:22.792Z,34.61
2023-03-22T16:32:53.741Z,38.31
2023-03-22T16:35:27.559Z,51.24
2023-03-22T16:37:57.228Z,44.16
2023-03-22T16:40:33.188Z,42.39
2023-03-22T16:43:03.025Z,40.10
2023-03-22T16:45:34.685Z,43.20
2023-03-22T16:48:09.304Z,43.56
2023-03-22T16:50:43.725Z,44.71
2023-03-22T16:53:19.544Z,45.81
2023-03-22T16:55:57.979Z,46.86
2023-03-22T16:58:27.729Z,47.50
2023-03-22T17:01:01.931Z,49.18
2023-03-22T17:03:31.425Z,49.07
2023-03-22T17:06:01.313Z,48.94
2023-03-22T17:08:34.172Z,50.04
2023-03-22T17:11:20.777Z,53.46
2023-03-22T17:13:59.013Z,52.76
2023-03-22T17:16:29.634Z,52.07
2023-03-22T17:18:59.501Z,54.33
2023-03-22T17:21:29.015Z,52.52
2023-03-22T17:24:05.012Z,51.56
2023-03-22T17:26:40.135Z,49.32
2023-03-22T17:29:09.747Z,46.80
2023-03-22T17:31:39.366Z,49.90
2023-03-22T17:34:13.807Z,45.65
2023-03-22T17:36:43.260Z,45.91
2023-03-22T17:39:31.059Z,46.19
2023-03-22T17:42:13.278Z,45.20
2023-03-22T17:44:43.525Z,45.52
2023-03-22T17:49:47.120Z,43.27
2023-03-22T17:52:18.253Z,44.84
2023-03-22T18:00:03.047Z,45.84
2023-03-22T18:02:32.851Z,46.86
2023-03-22T18:05:02.727Z,43.20
2023-03-22T18:07:38.630Z,41.54
2023-03-22T18:10:19.166Z,44.34
2023-03-22T18:12:56.358Z,44.50
2023-03-22T18:15:31.997Z,49.11
2023-03-22T18:18:01.732Z,48.09
2023-03-22T18:20:51.002Z,49.06
2023-03-22T18:23:24.693Z,50.36
2023-03-22T18:26:05.124Z,49.34
2023-03-22T18:28:42.828Z,51.46
2023-03-22T18:31:13.685Z,55.66
2023-03-22T18:33:45.832Z,55.04
2023-03-22T18:36:18.372Z,57.79
2023-03-22T18:39:26.776Z,59.24
2023-03-22T18:41:46.201Z,63.20
2023-03-22T18:44:21.309Z,63.33
2023-03-22T18:46:50.966Z,66.54
2023-03-22T18:49:23.263Z,65.84
2023-03-22T18:52:34.177Z,69.09
2023-03-22T18:54:46.058Z,64.58
2023-03-22T18:57:25.676Z,66.49
2023-03-22T18:59:58.627Z,67.35
2023-03-22T19:02:38.926Z,68.19
2023-03-22T19:05:19.994Z,67.90
2023-03-22T19:08:00.220Z,68.51
2023-03-22T19:10:40.631Z,72.09
2023-03-22T19:13:11.275Z,67.83
2023-03-22T19:15:50.588Z,74.48
2023-03-22T19:18:20.393Z,67.92
2023-03-22T19:21:06.029Z,69.11
2023-03-22T19:23:41.276Z,68.99
2023-03-22T19:26:10.789Z,70.82
2023-03-22T19:28:43.515Z,70.94
2023-03-22T19:31:18.544Z,72.06
2023-03-22T19:33:56.222Z,70.60
2023-03-22T19:36:27.911Z,70.24
2023-03-22T19:38:59.212Z,71.81
2023-03-22T19:41:50.959Z,71.99
2023-03-22T19:44:23.208Z,68.61
2023-03-22T19:47:00.671Z,70.56
2023-03-22T19:49:36.690Z,68.71
2023-03-22T19:52:06.873Z,68.13
2023-03-22T19:54:45.380Z,66.06
2023-03-22T19:57:15.018Z,65.57
2023-03-22T20:00:00.719Z,65.43
2023-03-22T20:02:41.935Z,64.61
2023-03-22T20:05:17.655Z,64.77
2023-03-22T20:07:50.764Z,65.21
2023-03-22T20:10:20.685Z,64.57
2023-03-22T20:12:51.799Z,64.56
2023-03-22T20:15:24.758Z,60.67
2023-03-22T20:18:00.129Z,61.14
2023-03-22T20:20:36.003Z,63.60
2023-03-22T20:23:08.383Z,62.47
2023-03-22T20:25:53.595Z,61.58
2023-03-22T20:28:23.392Z,64.76
2023-03-22T20:30:52.954Z,64.77
2023-03-22T20:33:27.486Z,62.21
2023-03-22T20:35:59.756Z,63.42
2023-03-22T20:38:32.801Z,64.48
2023-03-22T20:41:02.343Z,65.04
2023-03-22T20:43:32.256Z,61.85
2023-03-22T20:46:15.092Z,63.39
2023-03-22T20:48:52.170Z,61.36
2023-03-22T20:51:22.755Z,61.00
2023-03-22T20:53:52.310Z,61.28
2023-03-22T20:56:22.378Z,68.89
2023-03-22T20:58:53.193Z,68.70
2023-03-22T21:01:22.940Z,66.04
2023-03-22T21:03:57.930Z,66.09
2023-03-22T21:06:29.166Z,63.68
2023-03-22T21:09:00.605Z,63.21
2023-03-22T21:11:30.076Z,63.01
2023-03-22T21:14:00.056Z,65.39
2023-03-22T21:16:30.063Z,66.37
2023-03-22T21:19:02.591Z,64.90
2023-03-22T21:21:35.156Z,65.66
2023-03-22T21:24:12.965Z,69.29
2023-03-22T21:26:42.567Z,68.79
2023-03-22T21:29:15.181Z,69.04
2023-03-22T21:31:44.789Z,65.81
2023-03-22T21:34:17.260Z,68.05
2023-03-22T21:36:49.197Z,69.31
2023-03-22T21:39:19.317Z,67.46
2023-03-22T21:41:51.764Z,71.19
2023-03-22T21:44:22.365Z,67.66
2023-03-22T21:46:53.126Z,69.78
2023-03-22T21:49:26.449Z,66.79
2023-03-22T21:51:57.997Z,66.88
2023-03-22T21:54:29.562Z,66.15
2023-03-22T21:57:03.690Z,65.65
2023-03-22T21:59:34.101Z,63.81
2023-03-22T22:02:05.966Z,64.16
2023-03-22T22:04:39.314Z,62.52
2023-03-22T22:07:09.022Z,64.21
2023-03-22T22:09:38.641Z,63.12
2023-03-22T22:12:08.672Z,61.51
2023-03-22T22:14:41.654Z,61.76
2023-03-22T22:17:12.943Z,61.04
2023-03-22T22:19:45.320Z,60.01
2023-03-22T22:22:15.810Z,59.81
2023-03-22T22:24:46.060Z,58.99
2023-03-22T22:27:19.243Z,57.64
2023-03-22T22:29:49.226Z,57.51
2023-03-22T22:32:21.123Z,57.50
2023-03-22T22:34:53.494Z,57.59
2023-03-22T22:37:23.172Z,58.18
2023-03-22T22:39:52.627Z,56.38
2023-03-22T22:42:22.424Z,57.25
2023-03-22T22:44:52.461Z,54.70
2023-03-22T22:47:22.255Z,53.83
2023-03-22T22:49:55.839Z,53.16
2023-03-22T22:52:27.202Z,51.94
2023-03-22T22:54:57.022Z,50.63
2023-03-22T22:57:26.669Z,53.66
2023-03-22T22:59:56.430Z,51.75
2023-03-22T23:02:26.206Z,52.03
2023-03-22T23:05:06.623Z,50.56
2023-03-22T23:07:36.968Z,48.96
2023-03-22T23:10:09.037Z,48.90
2023-03-22T23:12:41.820Z,46.09
2023-03-22T23:15:26.753Z,46.12
2023-03-22T23:18:03.165Z,47.01
2023-03-22T23:20:42.173Z,45.30
2023-03-22T23:23:11.645Z,46.29
2023-03-22T23:25:44.533Z,42.44
2023-03-22T23:28:14.242Z,43.77
2023-03-22T23:30:43.680Z,43.87
2023-03-22T23:33:13.956Z,43.84
2023-03-22T23:35:51.121Z,44.87
2023-03-22T23:38:20.871Z,43.29
2023-03-22T23:40:55.279Z,45.99
2023-03-22T23:43:24.708Z,45.26
2023-03-22T23:45:54.570Z,44.66
2023-03-22T23:48:25.970Z,43.32
2023-03-22T23:51:01.633Z,42.36
2023-03-22T23:53:32.019Z,41.95
2023-03-22T23:56:01.961Z,42.08
2023-03-22T23:58:32.085Z,39.76
